createdAt,value
2018-05-16T00:02:22.716Z,11.35
2018-05-16T00:04:50.297Z,12.25
2018-05-16T00:07:17.919Z,11.68
2018-05-16T00:09:45.502Z,11.63
2018-05-16T00:12:13.124Z,12.20
2018-05-16T00:14:40.746Z,12.23
2018-05-16T00:17:08.369Z,12.07
2018-05-16T00:19:35.951Z,11.93
2018-05-16T00:22:03.533Z,13.07
2018-05-16T00:24:31.154Z,11.15
2018-05-16T00:26:58.781Z,11.73
2018-05-16T00:29:26.397Z,11.47
2018-05-16T00:31:53.985Z,12.00
2018-05-16T00:34:21.599Z,13.30
2018-05-16T00:36:49.179Z,12.10
2018-05-16T00:39:16.808Z,11.85
2018-05-16T00:41:44.399Z,12.70
2018-05-16T00:44:12.611Z,12.98
2018-05-16T00:46:40.195Z,10.90
2018-05-16T00:49:07.801Z,12.50
2018-05-16T00:51:35.987Z,11.75
2018-05-16T00:54:03.628Z,13.15
2018-05-16T00:56:31.216Z,12.97
2018-05-16T00:58:58.840Z,13.13
2018-05-16T01:01:26.425Z,11.70
2018-05-16T01:03:54.781Z,12.37
2018-05-16T01:06:22.357Z,13.27
2018-05-16T01:08:49.951Z,12.87
2018-05-16T01:11:17.593Z,12.00
2018-05-16T01:13:45.192Z,12.87
2018-05-16T01:16:12.768Z,13.27
2018-05-16T01:18:40.391Z,13.40
2018-05-16T01:21:07.985Z,12.60
2018-05-16T01:23:35.597Z,13.50
2018-05-16T01:26:03.213Z,12.48
2018-05-16T01:28:30.828Z,12.63
2018-05-16T01:30:58.627Z,12.33
2018-05-16T01:33:26.238Z,13.30
2018-05-16T01:35:53.818Z,14.02
2018-05-16T01:38:21.437Z,13.33
2018-05-16T01:40:49.017Z,13.80
2018-05-16T01:43:16.645Z,13.17
2018-05-16T01:45:44.821Z,12.90
2018-05-16T01:48:13.120Z,13.90
2018-05-16T01:50:40.762Z,14.10
2018-05-16T01:53:08.417Z,13.47
2018-05-16T01:55:36.041Z,12.45
2018-05-16T01:58:03.617Z,15.43
2018-05-16T02:00:31.254Z,15.20
2018-05-16T02:02:58.870Z,15.33
2018-05-16T02:05:26.622Z,15.20
2018-05-16T02:07:54.199Z,14.10
2018-05-16T02:10:21.833Z,15.00
2018-05-16T02:12:49.581Z,14.35
2018-05-16T02:15:17.157Z,16.05
2018-05-16T02:17:44.769Z,14.95
2018-05-16T02:20:12.355Z,15.23
2018-05-16T02:22:40.276Z,15.30
2018-05-16T02:25:07.866Z,15.82
2018-05-16T02:27:35.448Z,14.93
2018-05-16T02:30:03.064Z,13.80
2018-05-16T02:32:30.688Z,14.07
2018-05-16T02:34:58.357Z,14.07
2018-05-16T02:37:26.000Z,14.97
2018-05-16T02:39:53.821Z,16.47
2018-05-16T02:42:21.883Z,13.88
2018-05-16T02:44:49.469Z,17.00
2018-05-16T02:47:17.092Z,15.70
2018-05-16T02:49:44.715Z,15.60
2018-05-16T02:52:12.297Z,16.40
2018-05-16T02:54:39.925Z,15.87
2018-05-16T02:57:07.505Z,15.17
2018-05-16T02:59:35.133Z,16.07
2018-05-16T03:02:02.868Z,15.37
2018-05-16T03:04:30.467Z,16.37
2018-05-16T03:06:58.093Z,16.63
2018-05-16T03:09:25.723Z,16.30
2018-05-16T03:11:53.353Z,14.90
2018-05-16T03:14:20.948Z,15.47
2018-05-16T03:16:48.576Z,14.23
2018-05-16T03:19:16.188Z,14.90
2018-05-16T03:21:43.817Z,14.93
2018-05-16T03:24:11.398Z,15.00
2018-05-16T03:26:39.037Z,15.60
2018-05-16T03:29:06.664Z,14.63
2018-05-16T03:31:34.261Z,15.30
2018-05-16T03:34:01.907Z,15.30
2018-05-16T03:36:29.535Z,14.82
2018-05-16T03:38:57.117Z,15.63
2018-05-16T03:41:24.705Z,16.30
2018-05-16T03:43:52.323Z,14.70
2018-05-16T03:46:19.913Z,16.43
2018-05-16T03:48:47.540Z,15.90
2018-05-16T03:51:15.113Z,15.10
2018-05-16T03:53:42.742Z,15.30
2018-05-16T03:56:10.507Z,14.53
2018-05-16T03:58:50.293Z,14.95
2018-05-16T04:01:29.994Z,14.83
2018-05-16T04:04:09.281Z,15.27
2018-05-16T04:06:36.884Z,15.23
2018-05-16T04:09:04.544Z,15.60
2018-05-16T04:11:32.138Z,13.98
2018-05-16T04:13:59.724Z,14.70
2018-05-16T04:16:27.341Z,15.07
2018-05-16T04:18:54.972Z,15.43
2018-05-16T04:21:22.601Z,16.23
2018-05-16T04:23:50.231Z,16.33
2018-05-16T04:26:18.083Z,16.60
2018-05-16T04:28:45.730Z,14.43
2018-05-16T04:31:13.338Z,15.27
2018-05-16T04:33:41.916Z,15.23
2018-05-16T04:36:09.603Z,15.27
2018-05-16T04:38:37.180Z,15.93
2018-05-16T04:41:04.798Z,15.00
2018-05-16T04:43:32.429Z,14.45
2018-05-16T04:46:00.633Z,14.70
2018-05-16T04:48:28.259Z,15.43
2018-05-16T04:50:55.839Z,14.70
2018-05-16T04:53:23.480Z,15.70
2018-05-16T04:55:51.106Z,15.87
2018-05-16T04:58:18.725Z,15.63
2018-05-16T05:00:46.353Z,14.80
2018-05-16T05:03:13.949Z,13.93
2018-05-16T05:05:42.229Z,14.53
2018-05-16T05:08:10.576Z,13.83
2018-05-16T05:10:38.206Z,14.00
2018-05-16T05:13:05.794Z,14.80
2018-05-16T05:15:33.629Z,15.37
2018-05-16T05:18:01.252Z,14.63
2018-05-16T05:20:28.829Z,14.20
2018-05-16T05:22:56.471Z,15.13
2018-05-16T05:25:24.064Z,14.03
2018-05-16T05:27:51.844Z,14.65
2018-05-16T05:30:19.543Z,13.57
2018-05-16T05:32:47.117Z,13.80
2018-05-16T05:35:14.737Z,13.87
2018-05-16T05:37:42.384Z,12.90
2018-05-16T05:40:09.979Z,13.53
2018-05-16T05:42:37.616Z,14.20
2018-05-16T05:45:05.238Z,13.83
2018-05-16T05:47:33.008Z,13.00
2018-05-16T05:50:01.413Z,12.70
2018-05-16T05:52:29.168Z,12.00
2018-05-16T05:54:56.792Z,12.13
2018-05-16T05:57:24.712Z,12.83
2018-05-16T05:59:52.338Z,13.30
2018-05-16T06:02:19.922Z,12.33
2018-05-16T06:04:47.546Z,12.23
2018-05-16T06:07:15.132Z,11.90
2018-05-16T06:09:42.812Z,12.73
2018-05-16T06:12:10.389Z,13.70
2018-05-16T06:14:38.589Z,13.20
2018-05-16T06:17:06.208Z,12.40
2018-05-16T06:19:33.905Z,11.03
2018-05-16T06:22:01.470Z,12.88
2018-05-16T06:24:29.160Z,17.23
2018-05-16T06:26:57.119Z,12.80
2018-05-16T06:29:24.637Z,11.98
2018-05-16T06:31:52.309Z,12.63
2018-05-16T06:34:19.895Z,11.40
2018-05-16T06:36:47.518Z,12.13
2018-05-16T06:39:15.502Z,11.87
2018-05-16T06:41:43.104Z,12.77
2018-05-16T06:44:10.677Z,11.70
2018-05-16T06:46:38.285Z,11.85
2018-05-16T06:49:05.906Z,11.73
2018-05-16T06:51:33.500Z,12.30
2018-05-16T06:54:01.127Z,12.67
2018-05-16T06:56:28.891Z,12.90
2018-05-16T06:58:56.617Z,11.80
2018-05-16T07:01:24.201Z,11.20
2018-05-16T07:03:52.144Z,11.70
2018-05-16T07:06:19.772Z,11.20
2018-05-16T07:08:47.711Z,9.80
2018-05-16T07:11:15.301Z,11.37
2018-05-16T07:13:42.931Z,10.80
2018-05-16T07:16:11.086Z,9.40
2018-05-16T07:18:38.989Z,10.20
2018-05-16T07:21:06.569Z,10.37
2018-05-16T07:23:34.977Z,8.87
2018-05-16T07:26:03.400Z,9.67
2018-05-16T07:28:31.024Z,11.40
2018-05-16T07:30:58.636Z,8.97
2018-05-16T07:33:26.822Z,9.63
2018-05-16T07:35:54.406Z,10.70
2018-05-16T07:38:22.022Z,10.27
2018-05-16T07:40:49.603Z,10.20
2018-05-16T07:43:17.245Z,8.75
2018-05-16T07:45:44.822Z,8.93
2018-05-16T07:48:12.397Z,8.40
2018-05-16T07:50:40.018Z,7.90
2018-05-16T07:53:07.609Z,7.57
2018-05-16T07:55:35.216Z,6.70
2018-05-16T07:58:02.806Z,8.13
2018-05-16T08:00:31.042Z,7.00
2018-05-16T08:02:58.653Z,8.23
2018-05-16T08:05:26.229Z,7.47
2018-05-16T08:07:53.832Z,7.70
2018-05-16T08:10:21.460Z,7.63
2018-05-16T08:12:49.045Z,8.30
2018-05-16T08:15:16.668Z,7.60
2018-05-16T08:17:44.552Z,8.30
2018-05-16T08:20:12.161Z,7.80
2018-05-16T08:22:39.748Z,7.90
2018-05-16T08:25:07.359Z,7.80
2018-05-16T08:27:34.978Z,6.33
2018-05-16T08:30:02.562Z,6.07
2018-05-16T08:32:30.172Z,7.50
2018-05-16T08:34:57.793Z,6.83
2018-05-16T08:37:25.414Z,6.87
2018-05-16T08:39:52.998Z,7.10
2018-05-16T08:42:20.632Z,7.20
2018-05-16T08:44:48.238Z,6.90
2018-05-16T08:47:16.299Z,7.40
2018-05-16T08:49:43.920Z,7.30
2018-05-16T08:52:11.514Z,7.60
2018-05-16T08:54:39.865Z,7.83
2018-05-16T08:57:07.771Z,7.07
2018-05-16T08:59:35.362Z,8.43
2018-05-16T09:02:02.949Z,7.03
2018-05-16T09:04:30.738Z,7.83
2018-05-16T09:06:58.320Z,8.20
2018-05-16T09:09:25.897Z,7.80
2018-05-16T09:11:54.198Z,8.57
2018-05-16T09:14:21.836Z,8.27
2018-05-16T09:16:49.413Z,9.13
2018-05-16T09:19:17.030Z,8.40
2018-05-16T09:21:58.232Z,8.13
2018-05-16T09:24:26.753Z,7.90
2018-05-16T09:26:54.366Z,8.77
2018-05-16T09:29:21.957Z,8.23
2018-05-16T09:31:49.594Z,7.60
2018-05-16T09:34:17.166Z,7.00
2018-05-16T09:36:44.754Z,7.60
2018-05-16T09:39:12.374Z,7.47
2018-05-16T09:41:40.021Z,8.37
2018-05-16T09:44:08.249Z,8.50
2018-05-16T09:46:36.729Z,7.30
2018-05-16T09:49:04.342Z,8.60
2018-05-16T09:51:32.008Z,8.70
2018-05-16T09:53:59.569Z,8.30
2018-05-16T09:56:27.146Z,8.43
2018-05-16T09:58:54.759Z,10.53
2018-05-16T10:01:22.401Z,9.10
2018-05-16T10:03:49.995Z,10.17
2018-05-16T10:06:17.627Z,10.10
2018-05-16T10:08:45.241Z,8.33
2018-05-16T10:11:12.853Z,7.87
2018-05-16T10:13:40.483Z,7.70
2018-05-16T10:16:08.099Z,7.70
2018-05-16T10:18:35.695Z,7.32
2018-05-16T10:21:03.308Z,7.00
2018-05-16T10:23:30.942Z,6.97
2018-05-16T10:25:58.573Z,6.70
2018-05-16T10:28:26.245Z,7.55
2018-05-16T10:30:54.546Z,6.80
2018-05-16T10:33:22.171Z,6.40
2018-05-16T10:35:50.344Z,6.27
2018-05-16T10:38:19.160Z,6.94
2018-05-16T10:40:46.745Z,7.40
2018-05-16T10:43:14.321Z,7.20
2018-05-16T10:45:41.953Z,6.83
2018-05-16T10:48:10.127Z,7.85
2018-05-16T10:50:37.701Z,6.03
2018-05-16T10:53:05.310Z,7.40
2018-05-16T10:55:32.944Z,6.87
2018-05-16T10:58:01.543Z,6.77
2018-05-16T11:00:29.159Z,7.23
2018-05-16T11:02:56.801Z,7.43
2018-05-16T11:05:24.560Z,6.77
2018-05-16T11:07:52.144Z,7.00
2018-05-16T11:10:19.760Z,6.70
2018-05-16T11:12:47.608Z,6.40
2018-05-16T11:15:15.233Z,6.43
2018-05-16T11:17:42.799Z,7.80
2018-05-16T11:20:11.115Z,6.50
2018-05-16T11:22:38.863Z,7.07
2018-05-16T11:25:06.684Z,6.37
2018-05-16T11:27:34.269Z,6.73
2018-05-16T11:30:01.877Z,7.00
2018-05-16T11:32:29.574Z,8.13
2018-05-16T11:34:57.176Z,7.07
2018-05-16T11:37:24.799Z,7.40
2018-05-16T11:39:52.380Z,7.30
2018-05-16T11:42:19.996Z,7.07
2018-05-16T11:44:47.608Z,7.17
2018-05-16T11:47:15.226Z,6.40
2018-05-16T11:49:43.395Z,6.77
2018-05-16T11:52:11.009Z,6.70
2018-05-16T11:54:38.580Z,6.30
2018-05-16T11:57:06.202Z,6.60
2018-05-16T11:59:33.820Z,6.30
2018-05-16T12:02:01.397Z,7.00
2018-05-16T12:04:29.115Z,6.80
2018-05-16T12:06:56.737Z,7.20
2018-05-16T12:09:24.317Z,6.60
2018-05-16T12:11:57.894Z,7.10
2018-05-16T12:14:25.757Z,6.30
2018-05-16T12:16:53.377Z,6.72
2018-05-16T12:19:20.961Z,5.73
2018-05-16T12:21:48.538Z,7.13
2018-05-16T12:24:16.372Z,5.90
2018-05-16T12:26:43.984Z,5.70
2018-05-16T12:29:11.661Z,5.60
2018-05-16T12:31:39.213Z,5.37
2018-05-16T12:34:06.788Z,6.10
2018-05-16T12:36:34.465Z,5.68
2018-05-16T12:39:02.048Z,5.70
2018-05-16T12:41:29.660Z,5.53
2018-05-16T12:43:57.233Z,6.17
2018-05-16T12:46:25.612Z,5.57
2018-05-16T12:48:53.197Z,5.63
2018-05-16T12:51:21.390Z,5.97
2018-05-16T12:53:49.629Z,5.50
2018-05-16T12:56:17.200Z,5.90
2018-05-16T12:58:44.809Z,5.97
2018-05-16T13:01:12.381Z,5.60
2018-05-16T13:03:40.884Z,5.00
2018-05-16T13:06:08.656Z,5.40
2018-05-16T13:08:36.268Z,4.97
2018-05-16T13:11:03.848Z,5.20
2018-05-16T13:13:31.461Z,6.53
2018-05-16T13:15:59.024Z,5.67
2018-05-16T13:18:26.651Z,5.75
2018-05-16T13:20:54.230Z,5.53
2018-05-16T13:23:22.432Z,5.30
2018-05-16T13:25:50.025Z,4.67
2018-05-16T13:28:17.639Z,5.37
2018-05-16T13:30:45.213Z,6.07
2018-05-16T13:33:12.785Z,5.33
2018-05-16T13:35:40.485Z,5.20
2018-05-16T13:38:08.009Z,5.83
2018-05-16T13:40:35.625Z,5.50
2018-05-16T13:43:03.324Z,5.70
2018-05-16T13:45:30.938Z,5.47
2018-05-16T13:47:58.855Z,5.27
2018-05-16T13:50:26.472Z,5.27
2018-05-16T13:52:54.276Z,6.03
2018-05-16T13:55:21.892Z,5.93
2018-05-16T13:57:49.470Z,5.10
2018-05-16T14:00:17.084Z,5.27
2018-05-16T14:02:44.700Z,6.10
2018-05-16T14:05:12.297Z,5.70
2018-05-16T14:07:39.933Z,6.00
2018-05-16T14:10:07.514Z,5.50
2018-05-16T14:12:35.090Z,5.17
2018-05-16T14:15:03.013Z,5.30
2018-05-16T14:17:30.658Z,6.10
2018-05-16T14:19:58.549Z,6.00
2018-05-16T14:22:26.165Z,6.17
2018-05-16T14:24:53.741Z,5.77
2018-05-16T14:27:21.362Z,5.70
2018-05-16T14:29:49.280Z,5.40
2018-05-16T14:32:16.870Z,5.95
2018-05-16T14:34:44.493Z,6.27
2018-05-16T14:37:12.070Z,5.43
2018-05-16T14:39:39.676Z,4.90
2018-05-16T14:42:07.261Z,5.57
2018-05-16T14:44:34.887Z,6.30
2018-05-16T14:47:02.466Z,6.22
2018-05-16T14:49:30.044Z,6.37
2018-05-16T14:51:57.917Z,6.17
2018-05-16T14:54:25.538Z,5.93
2018-05-16T14:56:53.152Z,6.17
2018-05-16T14:59:20.740Z,6.57
2018-05-16T15:01:48.456Z,6.90
2018-05-16T15:04:16.007Z,6.33
2018-05-16T15:06:43.592Z,6.43
2018-05-16T15:09:11.985Z,6.17
2018-05-16T15:11:39.854Z,6.53
2018-05-16T15:16:38.518Z,6.17
2018-05-16T15:19:06.127Z,6.72
2018-05-16T15:21:33.741Z,5.80
2018-05-16T15:24:01.314Z,6.70
2018-05-16T15:26:28.940Z,6.30
2018-05-16T15:28:56.517Z,6.53
2018-05-16T15:31:24.099Z,6.47
2018-05-16T15:33:51.721Z,6.97
2018-05-16T15:36:19.539Z,7.63
2018-05-16T15:38:47.278Z,6.97
2018-05-16T15:41:15.412Z,6.73
2018-05-16T15:43:43.133Z,6.53
2018-05-16T15:46:10.730Z,6.70
2018-05-16T15:48:38.352Z,6.20
2018-05-16T15:51:06.628Z,6.80
2018-05-16T15:53:34.226Z,7.53
2018-05-16T15:56:01.838Z,6.97
2018-05-16T15:58:29.417Z,6.40
2018-05-16T16:00:57.040Z,7.23
2018-05-16T16:03:24.892Z,6.37
2018-05-16T16:05:52.559Z,6.10
2018-05-16T16:08:20.986Z,7.05
2018-05-16T16:10:48.565Z,7.50
2018-05-16T16:13:16.189Z,7.00
2018-05-16T16:15:43.867Z,6.73
2018-05-16T16:18:11.483Z,6.86
2018-05-16T16:20:39.057Z,6.60
2018-05-16T16:23:06.687Z,6.63
2018-05-16T16:25:34.261Z,6.53
2018-05-16T16:28:01.878Z,6.60
2018-05-16T16:30:29.665Z,7.20
2018-05-16T16:32:57.285Z,6.80
2018-05-16T16:35:24.910Z,7.00
2018-05-16T16:37:52.657Z,6.20
2018-05-16T16:40:20.844Z,6.63
2018-05-16T16:42:49.041Z,6.60
2018-05-16T16:45:16.739Z,6.23
2018-05-16T16:47:44.316Z,6.13
2018-05-16T16:50:13.110Z,6.37
2018-05-16T16:52:40.758Z,7.07
2018-05-16T16:55:08.373Z,6.70
2018-05-16T16:57:35.982Z,6.10
2018-05-16T17:00:03.613Z,6.90
2018-05-16T17:02:31.233Z,6.60
2018-05-16T17:04:58.820Z,6.13
2018-05-16T17:07:26.444Z,6.20
2018-05-16T17:09:54.759Z,6.00
2018-05-16T17:12:22.376Z,5.17
2018-05-16T17:14:50.023Z,6.70
2018-05-16T17:17:17.665Z,6.87
2018-05-16T17:19:45.241Z,6.30
2018-05-16T17:22:13.583Z,5.30
2018-05-16T17:24:41.158Z,5.90
2018-05-16T17:27:08.793Z,5.95
2018-05-16T17:29:36.431Z,6.20
2018-05-16T17:32:04.085Z,6.55
2018-05-16T17:34:32.859Z,6.53
2018-05-16T17:37:00.860Z,6.00
2018-05-16T17:39:28.491Z,5.93
2018-05-16T17:41:56.068Z,6.17
2018-05-16T17:44:23.781Z,5.72
2018-05-16T17:46:51.361Z,5.90
2018-05-16T17:49:18.977Z,6.40
2018-05-16T17:51:50.483Z,5.87
2018-05-16T17:54:25.375Z,6.30
2018-05-16T17:56:53.398Z,6.43
2018-05-16T17:59:21.022Z,6.43
2018-05-16T18:01:48.899Z,6.47
2018-05-16T18:04:16.761Z,6.67
2018-05-16T18:06:44.800Z,5.77
2018-05-16T18:09:13.406Z,6.20
2018-05-16T18:11:41.015Z,6.17
2018-05-16T18:14:20.599Z,6.27
2018-05-16T18:19:53.697Z,5.72
2018-05-16T18:22:22.224Z,6.00
2018-05-16T18:24:49.833Z,5.80
2018-05-16T18:27:17.437Z,5.47
2018-05-16T18:29:45.256Z,6.17
2018-05-16T18:32:13.189Z,6.00
2018-05-16T18:34:40.852Z,6.03
2018-05-16T18:37:08.435Z,6.03
2018-05-16T18:39:36.018Z,5.53
2018-05-16T18:42:05.116Z,5.53
2018-05-16T18:44:32.706Z,6.35
2018-05-16T18:47:00.522Z,5.28
2018-05-16T18:49:33.172Z,5.93
2018-05-16T18:52:01.127Z,5.70
2018-05-16T18:54:28.728Z,6.00
2018-05-16T18:56:56.353Z,5.47
2018-05-16T18:59:23.941Z,5.72
2018-05-16T19:01:51.565Z,6.33
2018-05-16T19:04:19.137Z,5.70
2018-05-16T19:06:51.632Z,5.50
2018-05-16T19:09:25.046Z,5.50
2018-05-16T19:11:59.822Z,5.77
2018-05-16T19:14:34.051Z,5.80
2018-05-16T19:17:01.985Z,5.55
2018-05-16T19:19:29.676Z,6.27
2018-05-16T19:21:57.249Z,6.45
2018-05-16T19:24:26.047Z,6.37
2018-05-16T19:26:53.695Z,6.00
2018-05-16T19:29:21.637Z,6.40
2018-05-16T19:31:49.224Z,8.07
2018-05-16T19:34:17.401Z,8.30
2018-05-16T19:36:44.981Z,7.70
2018-05-16T19:39:12.584Z,7.80
2018-05-16T19:41:40.195Z,7.97
2018-05-16T19:44:07.781Z,8.17
2018-05-16T19:46:35.404Z,9.20
2018-05-16T19:49:02.977Z,8.50
2018-05-16T19:51:30.556Z,8.65
2018-05-16T19:53:58.381Z,8.90
2018-05-16T19:56:25.962Z,7.60
2018-05-16T19:58:54.273Z,8.13
2018-05-16T20:01:21.996Z,7.97
2018-05-16T20:03:49.961Z,8.50
2018-05-16T20:06:17.537Z,7.70
2018-05-16T20:08:45.757Z,7.40
2018-05-16T20:11:14.062Z,7.50
2018-05-16T20:13:41.693Z,7.25
2018-05-16T20:16:09.857Z,7.00
2018-05-16T20:18:37.997Z,6.60
2018-05-16T20:21:06.342Z,7.20
2018-05-16T20:23:33.990Z,7.23
2018-05-16T20:26:01.771Z,5.30
2018-05-16T20:28:29.395Z,5.67
2018-05-16T20:30:56.973Z,7.05
2018-05-16T20:33:24.546Z,5.70
2018-05-16T20:35:52.743Z,6.35
2018-05-16T20:38:20.321Z,5.60
2018-05-16T20:40:47.944Z,5.80
2018-05-16T20:43:15.578Z,5.93
2018-05-16T20:45:43.161Z,5.80
2018-05-16T20:48:10.729Z,5.05
2018-05-16T20:50:38.422Z,5.05
2018-05-16T20:53:05.988Z,5.40
2018-05-16T20:55:33.676Z,5.47
2018-05-16T20:58:01.345Z,4.47
2018-05-16T21:00:28.960Z,5.10
2018-05-16T21:02:56.678Z,4.40
2018-05-16T21:05:24.256Z,4.27
2018-05-16T21:07:51.885Z,5.73
2018-05-16T21:10:19.474Z,4.07
2018-05-16T21:12:48.037Z,4.43
2018-05-16T21:15:16.361Z,5.20
2018-05-16T21:17:43.981Z,4.20
2018-05-16T21:20:11.559Z,4.30
2018-05-16T21:22:39.148Z,5.30
2018-05-16T21:25:06.766Z,4.90
2018-05-16T21:27:34.387Z,5.43
2018-05-16T21:30:01.980Z,3.90
2018-05-16T21:32:30.265Z,5.55
2018-05-16T21:34:57.877Z,4.60
2018-05-16T21:37:25.957Z,5.57
2018-05-16T21:39:54.353Z,5.03
2018-05-16T21:42:22.096Z,4.20
2018-05-16T21:44:49.719Z,4.50
2018-05-16T21:47:17.678Z,5.00
2018-05-16T21:49:45.337Z,4.78
2018-05-16T21:52:12.958Z,5.10
2018-05-16T21:54:40.570Z,4.40
2018-05-16T21:57:08.195Z,5.03
2018-05-16T21:59:35.777Z,5.17
2018-05-16T22:02:03.400Z,4.57
2018-05-16T22:04:31.024Z,5.80
2018-05-16T22:06:58.622Z,5.07
2018-05-16T22:09:26.276Z,4.10
2018-05-16T22:11:53.910Z,4.50
2018-05-16T22:14:22.364Z,4.70
2018-05-16T22:16:49.945Z,5.50
2018-05-16T22:19:17.569Z,4.60
2018-05-16T22:21:45.801Z,4.63
2018-05-16T22:24:13.381Z,5.15
2018-05-16T22:26:40.952Z,4.33
2018-05-16T22:29:09.049Z,5.45
2018-05-16T22:31:42.333Z,4.70
2018-05-16T22:34:15.573Z,4.75
2018-05-16T22:36:48.774Z,4.53
2018-05-16T22:39:22.024Z,5.37
2018-05-16T22:41:55.279Z,4.53
2018-05-16T22:47:26.837Z,4.93
2018-05-16T22:49:54.699Z,5.20
2018-05-16T22:52:22.281Z,4.50
2018-05-16T22:54:49.901Z,4.37
2018-05-16T22:57:17.476Z,6.33
2018-05-16T22:59:45.285Z,4.67
2018-05-16T23:02:13.177Z,4.40
2018-05-16T23:04:40.796Z,5.00
2018-05-16T23:07:08.385Z,5.33
2018-05-16T23:09:36.001Z,4.30
2018-05-16T23:12:03.589Z,4.90
2018-05-16T23:14:31.749Z,5.30
2018-05-16T23:16:59.357Z,5.60
2018-05-16T23:19:26.932Z,4.60
2018-05-16T23:21:54.825Z,5.20
2018-05-16T23:24:22.400Z,5.40
2018-05-16T23:26:50.018Z,6.23
2018-05-16T23:29:17.597Z,5.00
2018-05-16T23:31:45.217Z,5.50
2018-05-16T23:34:13.150Z,5.57
2018-05-16T23:36:40.752Z,5.43
2018-05-16T23:39:08.396Z,4.33
2018-05-16T23:41:36.021Z,4.40
2018-05-16T23:44:03.632Z,5.55
2018-05-16T23:46:31.253Z,4.60
2018-05-16T23:48:58.886Z,4.37
2018-05-16T23:51:26.501Z,4.67
2018-05-16T23:53:54.082Z,5.03
2018-05-16T23:56:21.754Z,5.40
2018-05-16T23:58:49.381Z,5.20
